sensor_id;sensor_type;location;lat;lon;timestamp;P1;durP1;ratioP1;P2;durP2;ratioP2
7211;SDS011;3647;48.792;9.802;2023-11-18T07:14:43;8.27;;;6.57;;
7211;SDS011;3647;48.792;9.802;2023-11-18T07:17:10;7.07;;;5.63;;
7211;SDS011;3647;48.792;9.802;2023-11-18T07:19:37;6.57;;;5.87;;
7211;SDS011;3647;48.792;9.802;2023-11-18T07:22:05;7.90;;;6.17;;
7211;SDS011;3647;48.792;9.802;2023-11-18T07:24:38;7.70;;;6.20;;
7211;SDS011;3647;48.792;9.802;2023-11-18T07:27:06;6.90;;;5.23;;
7211;SDS011;3647;48.792;9.802;2023-11-18T07:29:36;8.50;;;6.30;;
7211;SDS011;3647;48.792;9.802;2023-11-18T07:32:05;6.60;;;5.73;;
7211;SDS011;3647;48.792;9.802;2023-11-18T07:34:32;7.60;;;6.10;;
7211;SDS011;3647;48.792;9.802;2023-11-18T07:37:00;9.53;;;6.77;;
7211;SDS011;3647;48.792;9.802;2023-11-18T07:39:27;7.80;;;6.20;;
7211;SDS011;3647;48.792;9.802;2023-11-18T07:42:09;10.27;;;7.63;;
7211;SDS011;3647;48.792;9.802;2023-11-18T07:44:36;9.00;;;6.77;;
7211;SDS011;3647;48.792;9.802;2023-11-18T07:47:05;8.30;;;6.30;;
7211;SDS011;3647;48.792;9.802;2023-11-18T07:49:33;8.03;;;6.10;;
7211;SDS011;3647;48.792;9.802;2023-11-18T07:52:00;7.13;;;6.30;;
7211;SDS011;3647;48.792;9.802;2023-11-18T07:54:27;6.93;;;6.17;;
7211;SDS011;3647;48.792;9.802;2023-11-18T07:56:54;6.83;;;5.77;;
7211;SDS011;3647;48.792;9.802;2023-11-18T07:59:22;8.70;;;6.10;;
7211;SDS011;3647;48.792;9.802;2023-11-18T08:01:49;6.73;;;5.43;;
7211;SDS011;3647;48.792;9.802;2023-11-18T08:04:19;7.87;;;5.67;;
7211;SDS011;3647;48.792;9.802;2023-11-18T08:06:47;6.43;;;5.13;;
7211;SDS011;3647;48.792;9.802;2023-11-18T08:09:14;8.20;;;5.73;;
7211;SDS011;3647;48.792;9.802;2023-11-18T08:11:47;8.83;;;5.10;;
7211;SDS011;3647;48.792;9.802;2023-11-18T08:14:15;5.97;;;5.23;;
7211;SDS011;3647;48.792;9.802;2023-11-18T08:16:42;6.03;;;5.43;;
7211;SDS011;3647;48.792;9.802;2023-11-18T08:19:09;6.60;;;5.43;;
7211;SDS011;3647;48.792;9.802;2023-11-18T08:21:37;5.87;;;5.00;;
7211;SDS011;3647;48.792;9.802;2023-11-18T08:24:05;8.57;;;6.07;;
7211;SDS011;3647;48.792;9.802;2023-11-18T08:26:33;6.03;;;5.37;;
7211;SDS011;3647;48.792;9.802;2023-11-18T08:29:00;6.00;;;5.27;;
7211;SDS011;3647;48.792;9.802;2023-11-18T08:31:27;5.90;;;5.07;;
7211;SDS011;3647;48.792;9.802;2023-11-18T08:33:56;6.23;;;5.03;;
7211;SDS011;3647;48.792;9.802;2023-11-18T08:36:23;7.53;;;5.60;;
7211;SDS011;3647;48.792;9.802;2023-11-18T08:38:52;6.33;;;5.30;;
7211;SDS011;3647;48.792;9.802;2023-11-18T08:41:22;6.23;;;5.40;;
7211;SDS011;3647;48.792;9.802;2023-11-18T08:43:49;6.63;;;5.10;;
7211;SDS011;3647;48.792;9.802;2023-11-18T08:46:17;6.37;;;5.57;;
7211;SDS011;3647;48.792;9.802;2023-11-18T08:48:44;5.60;;;4.90;;
7211;SDS011;3647;48.792;9.802;2023-11-18T08:51:14;6.80;;;5.30;;
7211;SDS011;3647;48.792;9.802;2023-11-18T08:53:41;5.50;;;4.90;;
7211;SDS011;3647;48.792;9.802;2023-11-18T08:56:09;5.47;;;4.80;;
7211;SDS011;3647;48.792;9.802;2023-11-18T08:58:40;5.30;;;4.80;;
7211;SDS011;3647;48.792;9.802;2023-11-18T09:01:07;8.07;;;5.23;;
7211;SDS011;3647;48.792;9.802;2023-11-18T09:03:39;8.17;;;5.53;;
7211;SDS011;3647;48.792;9.802;2023-11-18T09:06:13;6.53;;;5.10;;
7211;SDS011;3647;48.792;9.802;2023-11-18T09:08:43;6.43;;;5.77;;
7211;SDS011;3647;48.792;9.802;2023-11-18T09:11:13;9.30;;;5.80;;
7211;SDS011;3647;48.792;9.802;2023-11-18T09:13:42;6.20;;;5.13;;
7211;SDS011;3647;48.792;9.802;2023-11-18T09:16:10;6.00;;;4.83;;
7211;SDS011;3647;48.792;9.802;2023-11-18T09:18:38;5.83;;;4.70;;
7211;SDS011;3647;48.792;9.802;2023-11-18T09:21:05;6.53;;;5.10;;
7211;SDS011;3647;48.792;9.802;2023-11-18T09:23:39;6.60;;;5.10;;
7211;SDS011;3647;48.792;9.802;2023-11-18T09:26:07;9.07;;;5.30;;
7211;SDS011;3647;48.792;9.802;2023-11-18T09:28:37;6.10;;;4.47;;
7211;SDS011;3647;48.792;9.802;2023-11-18T09:31:04;8.40;;;5.47;;
7211;SDS011;3647;48.792;9.802;2023-11-18T09:33:36;6.03;;;5.43;;
7211;SDS011;3647;48.792;9.802;2023-11-18T09:36:05;5.37;;;4.10;;
7211;SDS011;3647;48.792;9.802;2023-11-18T09:38:33;4.10;;;3.80;;
7211;SDS011;3647;48.792;9.802;2023-11-18T09:41:01;4.67;;;4.07;;
7211;SDS011;3647;48.792;9.802;2023-11-18T09:43:32;4.27;;;3.87;;
7211;SDS011;3647;48.792;9.802;2023-11-18T09:46:09;6.53;;;4.57;;
7211;SDS011;3647;48.792;9.802;2023-11-18T09:48:39;5.90;;;4.33;;
7211;SDS011;3647;48.792;9.802;2023-11-18T09:51:13;4.43;;;3.67;;
7211;SDS011;3647;48.792;9.802;2023-11-18T09:53:43;3.80;;;3.50;;
7211;SDS011;3647;48.792;9.802;2023-11-18T09:56:13;4.43;;;3.60;;
7211;SDS011;3647;48.792;9.802;2023-11-18T09:58:54;3.87;;;3.30;;
7211;SDS011;3647;48.792;9.802;2023-11-18T10:01:34;5.17;;;4.67;;
7211;SDS011;3647;48.792;9.802;2023-11-18T10:04:04;4.00;;;3.70;;
7211;SDS011;3647;48.792;9.802;2023-11-18T10:06:32;3.80;;;3.17;;
7211;SDS011;3647;48.792;9.802;2023-11-18T10:09:01;4.97;;;3.27;;
7211;SDS011;3647;48.792;9.802;2023-11-18T10:11:41;3.40;;;3.10;;
7211;SDS011;3647;48.792;9.802;2023-11-18T10:14:11;3.43;;;3.07;;
7211;SDS011;3647;48.792;9.802;2023-11-18T10:16:42;5.03;;;3.37;;
7211;SDS011;3647;48.792;9.802;2023-11-18T10:19:11;3.33;;;3.13;;
7211;SDS011;3647;48.792;9.802;2023-11-18T10:21:39;4.77;;;3.57;;
7211;SDS011;3647;48.792;9.802;2023-11-18T10:24:06;4.70;;;3.77;;
7211;SDS011;3647;48.792;9.802;2023-11-18T10:26:39;3.80;;;2.90;;
7211;SDS011;3647;48.792;9.802;2023-11-18T10:29:07;2.77;;;2.57;;
7211;SDS011;3647;48.792;9.802;2023-11-18T10:31:38;3.43;;;3.13;;
7211;SDS011;3647;48.792;9.802;2023-11-18T10:34:11;4.10;;;3.10;;
7211;SDS011;3647;48.792;9.802;2023-11-18T10:36:41;3.33;;;3.00;;
7211;SDS011;3647;48.792;9.802;2023-11-18T10:39:25;3.43;;;3.13;;
7211;SDS011;3647;48.792;9.802;2023-11-18T10:41:57;3.27;;;2.90;;
7211;SDS011;3647;48.792;9.802;2023-11-18T10:44:25;3.20;;;2.90;;
7211;SDS011;3647;48.792;9.802;2023-11-18T10:46:52;2.70;;;2.50;;
7211;SDS011;3647;48.792;9.802;2023-11-18T10:49:21;3.47;;;2.60;;
7211;SDS011;3647;48.792;9.802;2023-11-18T10:51:51;2.60;;;2.40;;
7211;SDS011;3647;48.792;9.802;2023-11-18T10:54:18;2.30;;;2.10;;
7211;SDS011;3647;48.792;9.802;2023-11-18T10:56:46;4.47;;;2.07;;
7211;SDS011;3647;48.792;9.802;2023-11-18T10:59:13;4.60;;;2.10;;
7211;SDS011;3647;48.792;9.802;2023-11-18T11:01:41;2.30;;;2.10;;
7211;SDS011;3647;48.792;9.802;2023-11-18T11:04:09;2.40;;;2.17;;
7211;SDS011;3647;48.792;9.802;2023-11-18T11:06:40;2.70;;;2.10;;
7211;SDS011;3647;48.792;9.802;2023-11-18T11:09:08;2.00;;;1.80;;
7211;SDS011;3647;48.792;9.802;2023-11-18T11:11:44;1.53;;;1.50;;
7211;SDS011;3647;48.792;9.802;2023-11-18T11:14:14;1.87;;;1.50;;
7211;SDS011;3647;48.792;9.802;2023-11-18T11:16:45;2.63;;;1.80;;
7211;SDS011;3647;48.792;9.802;2023-11-18T11:19:23;1.73;;;1.63;;
7211;SDS011;3647;48.792;9.802;2023-11-18T11:22:00;2.50;;;1.67;;
7211;SDS011;3647;48.792;9.802;2023-11-18T11:24:35;1.90;;;1.70;;
7211;SDS011;3647;48.792;9.802;2023-11-18T11:27:17;2.30;;;1.70;;
7211;SDS011;3647;48.792;9.802;2023-11-18T11:29:56;2.10;;;2.00;;
7211;SDS011;3647;48.792;9.802;2023-11-18T11:32:35;2.30;;;1.90;;
7211;SDS011;3647;48.792;9.802;2023-11-18T11:35:06;1.97;;;1.80;;
7211;SDS011;3647;48.792;9.802;2023-11-18T11:37:45;4.00;;;2.30;;
7211;SDS011;3647;48.792;9.802;2023-11-18T11:40:13;2.47;;;2.27;;
7211;SDS011;3647;48.792;9.802;2023-11-18T11:42:47;2.03;;;1.83;;
7211;SDS011;3647;48.792;9.802;2023-11-18T11:45:20;4.90;;;1.80;;
7211;SDS011;3647;48.792;9.802;2023-11-18T11:47:53;3.43;;;1.70;;
7211;SDS011;3647;48.792;9.802;2023-11-18T11:50:38;3.47;;;1.80;;
7211;SDS011;3647;48.792;9.802;2023-11-18T11:53:15;4.03;;;2.13;;
7211;SDS011;3647;48.792;9.802;2023-11-18T11:55:49;2.47;;;1.80;;
7211;SDS011;3647;48.792;9.802;2023-11-18T11:58:27;1.40;;;1.30;;
7211;SDS011;3647;48.792;9.802;2023-11-18T12:00:56;3.57;;;1.70;;
7211;SDS011;3647;48.792;9.802;2023-11-18T12:03:26;4.67;;;1.93;;
7211;SDS011;3647;48.792;9.802;2023-11-18T12:06:01;2.30;;;1.87;;
7211;SDS011;3647;48.792;9.802;2023-11-18T12:08:34;2.20;;;2.00;;
7211;SDS011;3647;48.792;9.802;2023-11-18T12:11:05;3.07;;;2.37;;
7211;SDS011;3647;48.792;9.802;2023-11-18T12:13:35;2.27;;;1.63;;
7211;SDS011;3647;48.792;9.802;2023-11-18T12:16:06;2.05;;;1.90;;
7211;SDS011;3647;48.792;9.802;2023-11-18T12:18:35;1.80;;;1.70;;
7211;SDS011;3647;48.792;9.802;2023-11-18T12:21:03;1.83;;;1.73;;
7211;SDS011;3647;48.792;9.802;2023-11-18T12:23:30;2.17;;;1.93;;
7211;SDS011;3647;48.792;9.802;2023-11-18T12:26:00;1.80;;;1.70;;
7211;SDS011;3647;48.792;9.802;2023-11-18T12:28:28;1.87;;;1.77;;
7211;SDS011;3647;48.792;9.802;2023-11-18T12:30:59;1.63;;;1.53;;
7211;SDS011;3647;48.792;9.802;2023-11-18T12:39:47;1.87;;;1.60;;
7211;SDS011;3647;48.792;9.802;2023-11-18T12:42:59;2.23;;;1.63;;
7211;SDS011;3647;48.792;9.802;2023-11-18T12:45:42;1.77;;;1.67;;
7211;SDS011;3647;48.792;9.802;2023-11-18T12:48:13;1.70;;;1.60;;
7211;SDS011;3647;48.792;9.802;2023-11-18T12:50:40;7.60;;;1.77;;
7211;SDS011;3647;48.792;9.802;2023-11-18T12:53:09;1.77;;;1.67;;
7211;SDS011;3647;48.792;9.802;2023-11-18T12:55:39;2.33;;;1.83;;
7211;SDS011;3647;48.792;9.802;2023-11-18T12:58:08;2.77;;;1.77;;
7211;SDS011;3647;48.792;9.802;2023-11-18T13:00:36;1.57;;;1.43;;
7211;SDS011;3647;48.792;9.802;2023-11-18T13:03:07;4.33;;;1.70;;
7211;SDS011;3647;48.792;9.802;2023-11-18T13:05:35;2.10;;;1.70;;
7211;SDS011;3647;48.792;9.802;2023-11-18T13:08:03;3.03;;;1.80;;
7211;SDS011;3647;48.792;9.802;2023-11-18T13:10:31;1.67;;;1.57;;
7211;SDS011;3647;48.792;9.802;2023-11-18T13:12:58;1.80;;;1.70;;
7211;SDS011;3647;48.792;9.802;2023-11-18T13:15:26;1.60;;;1.50;;
7211;SDS011;3647;48.792;9.802;2023-11-18T13:17:57;1.73;;;1.30;;
7211;SDS011;3647;48.792;9.802;2023-11-18T13:20:25;1.80;;;1.70;;
7211;SDS011;3647;48.792;9.802;2023-11-18T13:22:52;1.73;;;1.60;;
7211;SDS011;3647;48.792;9.802;2023-11-18T13:25:20;1.60;;;1.50;;
7211;SDS011;3647;48.792;9.802;2023-11-18T13:27:48;2.30;;;1.60;;
7211;SDS011;3647;48.792;9.802;2023-11-18T13:30:16;1.93;;;1.80;;
7211;SDS011;3647;48.792;9.802;2023-11-18T13:32:47;1.40;;;1.30;;
7211;SDS011;3647;48.792;9.802;2023-11-18T13:35:16;2.60;;;1.67;;
7211;SDS011;3647;48.792;9.802;2023-11-18T13:37:46;2.27;;;2.07;;
7211;SDS011;3647;48.792;9.802;2023-11-18T13:40:14;3.90;;;2.03;;
7211;SDS011;3647;48.792;9.802;2023-11-18T13:42:43;2.70;;;2.47;;
7211;SDS011;3647;48.792;9.802;2023-11-18T13:45:11;2.57;;;2.37;;
7211;SDS011;3647;48.792;9.802;2023-11-18T13:47:49;2.40;;;2.20;;
7211;SDS011;3647;48.792;9.802;2023-11-18T13:50:17;2.40;;;2.20;;
7211;SDS011;3647;48.792;9.802;2023-11-18T13:52:44;2.23;;;2.03;;
7211;SDS011;3647;48.792;9.802;2023-11-18T13:55:12;3.37;;;1.87;;
7211;SDS011;3647;48.792;9.802;2023-11-18T13:57:47;3.40;;;2.27;;
7211;SDS011;3647;48.792;9.802;2023-11-18T14:00:14;3.00;;;2.43;;
7211;SDS011;3647;48.792;9.802;2023-11-18T14:02:42;4.47;;;2.80;;
7211;SDS011;3647;48.792;9.802;2023-11-18T14:05:16;2.93;;;2.60;;
7211;SDS011;3647;48.792;9.802;2023-11-18T14:07:43;4.63;;;2.43;;
7211;SDS011;3647;48.792;9.802;2023-11-18T14:10:11;2.63;;;2.27;;
7211;SDS011;3647;48.792;9.802;2023-11-18T14:12:38;6.83;;;2.20;;
7211;SDS011;3647;48.792;9.802;2023-11-18T14:15:05;2.57;;;2.37;;
7211;SDS011;3647;48.792;9.802;2023-11-18T14:17:35;5.23;;;2.67;;
7211;SDS011;3647;48.792;9.802;2023-11-18T14:20:01;3.00;;;2.67;;
7211;SDS011;3647;48.792;9.802;2023-11-18T14:22:30;3.17;;;2.30;;
7211;SDS011;3647;48.792;9.802;2023-11-18T14:24:57;2.40;;;2.20;;
7211;SDS011;3647;48.792;9.802;2023-11-18T14:27:24;3.57;;;2.70;;
7211;SDS011;3647;48.792;9.802;2023-11-18T14:29:51;3.00;;;2.63;;
7211;SDS011;3647;48.792;9.802;2023-11-18T14:32:17;3.27;;;2.53;;
7211;SDS011;3647;48.792;9.802;2023-11-18T14:34:44;2.23;;;2.13;;
7211;SDS011;3647;48.792;9.802;2023-11-18T14:37:14;3.80;;;2.50;;
7211;SDS011;3647;48.792;9.802;2023-11-18T14:39:42;3.43;;;2.40;;
7211;SDS011;3647;48.792;9.802;2023-11-18T14:42:09;2.90;;;2.50;;
7211;SDS011;3647;48.792;9.802;2023-11-18T14:44:36;2.73;;;2.53;;
7211;SDS011;3647;48.792;9.802;2023-11-18T14:47:02;3.10;;;2.27;;
7211;SDS011;3647;48.792;9.802;2023-11-18T14:49:32;2.47;;;2.27;;
7211;SDS011;3647;48.792;9.802;2023-11-18T14:51:59;2.50;;;2.30;;
7211;SDS011;3647;48.792;9.802;2023-11-18T14:54:26;6.97;;;2.63;;
7211;SDS011;3647;48.792;9.802;2023-11-18T14:56:56;3.73;;;2.37;;
7211;SDS011;3647;48.792;9.802;2023-11-18T14:59:23;5.10;;;2.50;;
7211;SDS011;3647;48.792;9.802;2023-11-18T15:01:50;4.50;;;2.87;;
7211;SDS011;3647;48.792;9.802;2023-11-18T15:04:22;4.20;;;2.57;;
7211;SDS011;3647;48.792;9.802;2023-11-18T15:06:48;3.40;;;2.30;;
7211;SDS011;3647;48.792;9.802;2023-11-18T15:09:17;2.97;;;2.30;;
7211;SDS011;3647;48.792;9.802;2023-11-18T15:11:46;3.73;;;2.83;;
7211;SDS011;3647;48.792;9.802;2023-11-18T15:14:16;2.97;;;2.50;;
7211;SDS011;3647;48.792;9.802;2023-11-18T15:16:43;2.87;;;2.57;;
7211;SDS011;3647;48.792;9.802;2023-11-18T15:19:11;3.73;;;1.90;;
7211;SDS011;3647;48.792;9.802;2023-11-18T15:21:38;2.23;;;2.07;;
7211;SDS011;3647;48.792;9.802;2023-11-18T15:24:05;2.60;;;2.40;;
7211;SDS011;3647;48.792;9.802;2023-11-18T15:26:34;3.73;;;2.33;;
7211;SDS011;3647;48.792;9.802;2023-11-18T15:29:01;2.43;;;2.23;;
7211;SDS011;3647;48.792;9.802;2023-11-18T15:31:36;2.57;;;2.37;;
7211;SDS011;3647;48.792;9.802;2023-11-18T15:34:03;3.13;;;2.30;;
7211;SDS011;3647;48.792;9.802;2023-11-18T15:36:30;3.00;;;2.67;;
7211;SDS011;3647;48.792;9.802;2023-11-18T15:38:58;2.73;;;2.50;;
7211;SDS011;3647;48.792;9.802;2023-11-18T15:41:28;2.43;;;2.20;;
7211;SDS011;3647;48.792;9.802;2023-11-18T15:43:55;4.50;;;2.80;;
7211;SDS011;3647;48.792;9.802;2023-11-18T15:46:22;2.47;;;2.27;;
7211;SDS011;3647;48.792;9.802;2023-11-18T15:48:51;2.50;;;2.30;;
7211;SDS011;3647;48.792;9.802;2023-11-18T15:51:18;2.60;;;2.40;;
7211;SDS011;3647;48.792;9.802;2023-11-18T15:53:46;3.00;;;2.70;;
7211;SDS011;3647;48.792;9.802;2023-11-18T15:56:13;4.67;;;2.70;;
7211;SDS011;3647;48.792;9.802;2023-11-18T15:58:41;3.20;;;2.90;;
7211;SDS011;3647;48.792;9.802;2023-11-18T16:01:08;2.87;;;2.43;;
7211;SDS011;3647;48.792;9.802;2023-11-18T16:03:35;2.80;;;2.60;;
7211;SDS011;3647;48.792;9.802;2023-11-18T16:06:04;3.40;;;3.20;;
7211;SDS011;3647;48.792;9.802;2023-11-18T16:08:31;3.20;;;2.90;;
7211;SDS011;3647;48.792;9.802;2023-11-18T16:11:02;4.87;;;2.90;;
7211;SDS011;3647;48.792;9.802;2023-11-18T16:13:30;4.93;;;2.90;;
7211;SDS011;3647;48.792;9.802;2023-11-18T16:15:59;4.30;;;2.83;;
7211;SDS011;3647;48.792;9.802;2023-11-18T16:18:27;4.27;;;2.60;;
7211;SDS011;3647;48.792;9.802;2023-11-18T16:20:54;3.73;;;2.17;;
7211;SDS011;3647;48.792;9.802;2023-11-18T16:23:24;2.63;;;2.43;;
7211;SDS011;3647;48.792;9.802;2023-11-18T16:25:54;2.90;;;2.63;;
7211;SDS011;3647;48.792;9.802;2023-11-18T16:28:21;3.20;;;2.40;;
7211;SDS011;3647;48.792;9.802;2023-11-18T16:30:48;3.23;;;2.93;;
7211;SDS011;3647;48.792;9.802;2023-11-18T16:33:17;3.57;;;2.60;;
7211;SDS011;3647;48.792;9.802;2023-11-18T16:35:45;2.83;;;2.63;;
7211;SDS011;3647;48.792;9.802;2023-11-18T16:38:12;3.37;;;2.50;;
7211;SDS011;3647;48.792;9.802;2023-11-18T16:40:40;4.60;;;2.70;;
7211;SDS011;3647;48.792;9.802;2023-11-18T16:43:07;4.27;;;2.97;;
7211;SDS011;3647;48.792;9.802;2023-11-18T16:45:34;3.40;;;3.10;;
7211;SDS011;3647;48.792;9.802;2023-11-18T16:48:02;3.30;;;3.00;;
7211;SDS011;3647;48.792;9.802;2023-11-18T16:50:29;3.37;;;3.07;;
7211;SDS011;3647;48.792;9.802;2023-11-18T16:52:56;4.83;;;3.30;;
7211;SDS011;3647;48.792;9.802;2023-11-18T16:55:24;4.87;;;3.00;;
7211;SDS011;3647;48.792;9.802;2023-11-18T16:57:53;4.63;;;3.17;;
7211;SDS011;3647;48.792;9.802;2023-11-18T17:00:20;3.40;;;2.50;;
7211;SDS011;3647;48.792;9.802;2023-11-18T17:02:48;4.63;;;3.00;;
7211;SDS011;3647;48.792;9.802;2023-11-18T17:05:18;3.20;;;2.90;;
7211;SDS011;3647;48.792;9.802;2023-11-18T17:07:45;3.33;;;3.03;;
7211;SDS011;3647;48.792;9.802;2023-11-18T17:10:13;3.07;;;2.80;;
7211;SDS011;3647;48.792;9.802;2023-11-18T17:12:41;3.57;;;2.60;;
7211;SDS011;3647;48.792;9.802;2023-11-18T17:15:10;3.07;;;2.57;;
7211;SDS011;3647;48.792;9.802;2023-11-18T17:17:38;4.93;;;2.53;;
7211;SDS011;3647;48.792;9.802;2023-11-18T17:20:06;2.47;;;2.27;;
7211;SDS011;3647;48.792;9.802;2023-11-18T17:22:35;2.57;;;2.30;;
7211;SDS011;3647;48.792;9.802;2023-11-18T17:25:04;2.50;;;2.30;;
7211;SDS011;3647;48.792;9.802;2023-11-18T17:27:33;3.97;;;2.80;;
7211;SDS011;3647;48.792;9.802;2023-11-18T17:30:01;4.00;;;3.00;;
7211;SDS011;3647;48.792;9.802;2023-11-18T17:32:30;2.83;;;2.13;;
7211;SDS011;3647;48.792;9.802;2023-11-18T17:34:56;3.20;;;2.90;;
7211;SDS011;3647;48.792;9.802;2023-11-18T17:37:24;2.83;;;2.30;;
7211;SDS011;3647;48.792;9.802;2023-11-18T17:39:51;2.97;;;2.67;;
7211;SDS011;3647;48.792;9.802;2023-11-18T17:42:18;2.60;;;2.40;;
7211;SDS011;3647;48.792;9.802;2023-11-18T17:44:45;3.80;;;2.47;;
7211;SDS011;3647;48.792;9.802;2023-11-18T17:47:12;4.30;;;2.30;;
7211;SDS011;3647;48.792;9.802;2023-11-18T17:49:40;5.50;;;2.67;;
7211;SDS011;3647;48.792;9.802;2023-11-18T17:52:07;2.93;;;2.70;;
7211;SDS011;3647;48.792;9.802;2023-11-18T17:54:34;3.00;;;2.70;;
7211;SDS011;3647;48.792;9.802;2023-11-18T17:57:02;3.43;;;2.70;;
7211;SDS011;3647;48.792;9.802;2023-11-18T17:59:29;3.27;;;2.20;;
7211;SDS011;3647;48.792;9.802;2023-11-18T18:01:56;2.83;;;2.13;;
7211;SDS011;3647;48.792;9.802;2023-11-18T18:04:23;2.33;;;2.13;;
7211;SDS011;3647;48.792;9.802;2023-11-18T18:06:52;2.63;;;2.17;;
7211;SDS011;3647;48.792;9.802;2023-11-18T18:09:18;2.30;;;2.10;;
7211;SDS011;3647;48.792;9.802;2023-11-18T18:11:49;2.77;;;2.53;;
7211;SDS011;3647;48.792;9.802;2023-11-18T18:14:16;2.30;;;2.10;;
7211;SDS011;3647;48.792;9.802;2023-11-18T18:16:43;2.10;;;1.90;;
7211;SDS011;3647;48.792;9.802;2023-11-18T18:19:10;3.93;;;2.07;;
7211;SDS011;3647;48.792;9.802;2023-11-18T18:21:37;2.30;;;2.03;;
7211;SDS011;3647;48.792;9.802;2023-11-18T18:24:05;2.37;;;2.17;;
7211;SDS011;3647;48.792;9.802;2023-11-18T18:26:32;1.97;;;1.87;;
7211;SDS011;3647;48.792;9.802;2023-11-18T18:29:00;2.90;;;2.20;;
7211;SDS011;3647;48.792;9.802;2023-11-18T18:31:27;2.63;;;2.10;;
7211;SDS011;3647;48.792;9.802;2023-11-18T18:33:54;2.20;;;1.97;;
7211;SDS011;3647;48.792;9.802;2023-11-18T18:36:21;2.10;;;2.00;;
7211;SDS011;3647;48.792;9.802;2023-11-18T18:38:48;2.70;;;2.00;;
7211;SDS011;3647;48.792;9.802;2023-11-18T18:41:16;2.40;;;2.20;;
7211;SDS011;3647;48.792;9.802;2023-11-18T18:43:43;2.07;;;1.97;;
7211;SDS011;3647;48.792;9.802;2023-11-18T18:46:11;2.10;;;1.90;;
7211;SDS011;3647;48.792;9.802;2023-11-18T18:48:37;7.60;;;2.53;;
7211;SDS011;3647;48.792;9.802;2023-11-18T18:51:05;2.57;;;2.37;;
7211;SDS011;3647;48.792;9.802;2023-11-18T18:53:32;3.53;;;2.17;;
7211;SDS011;3647;48.792;9.802;2023-11-18T18:55:59;2.27;;;2.13;;
7211;SDS011;3647;48.792;9.802;2023-11-18T18:58:27;2.20;;;2.00;;
7211;SDS011;3647;48.792;9.802;2023-11-18T19:00:54;2.13;;;2.00;;
7211;SDS011;3647;48.792;9.802;2023-11-18T19:03:21;2.50;;;2.13;;
7211;SDS011;3647;48.792;9.802;2023-11-18T19:05:48;3.70;;;2.20;;
7211;SDS011;3647;48.792;9.802;2023-11-18T19:08:15;2.10;;;2.00;;
7211;SDS011;3647;48.792;9.802;2023-11-18T19:10:42;2.97;;;2.30;;
7211;SDS011;3647;48.792;9.802;2023-11-18T19:13:09;2.53;;;2.37;;
7211;SDS011;3647;48.792;9.802;2023-11-18T19:15:37;2.17;;;2.07;;
7211;SDS011;3647;48.792;9.802;2023-11-18T19:18:04;2.83;;;2.40;;
7211;SDS011;3647;48.792;9.802;2023-11-18T19:20:31;2.67;;;2.40;;
7211;SDS011;3647;48.792;9.802;2023-11-18T19:22:58;2.57;;;2.20;;
7211;SDS011;3647;48.792;9.802;2023-11-18T19:25:24;2.63;;;2.23;;
7211;SDS011;3647;48.792;9.802;2023-11-18T19:27:52;2.93;;;2.73;;
7211;SDS011;3647;48.792;9.802;2023-11-18T19:30:19;2.20;;;2.10;;
7211;SDS011;3647;48.792;9.802;2023-11-18T19:32:47;3.57;;;2.83;;
7211;SDS011;3647;48.792;9.802;2023-11-18T19:35:14;3.90;;;2.50;;
7211;SDS011;3647;48.792;9.802;2023-11-18T19:37:41;2.23;;;2.03;;
7211;SDS011;3647;48.792;9.802;2023-11-18T19:40:08;2.67;;;2.47;;
7211;SDS011;3647;48.792;9.802;2023-11-18T19:42:36;2.70;;;2.50;;
7211;SDS011;3647;48.792;9.802;2023-11-18T19:45:03;2.13;;;2.03;;
7211;SDS011;3647;48.792;9.802;2023-11-18T19:47:33;2.80;;;2.60;;
7211;SDS011;3647;48.792;9.802;2023-11-18T19:50:01;2.97;;;2.40;;
7211;SDS011;3647;48.792;9.802;2023-11-18T19:52:33;2.70;;;2.50;;
7211;SDS011;3647;48.792;9.802;2023-11-18T19:55:01;2.87;;;2.67;;
7211;SDS011;3647;48.792;9.802;2023-11-18T19:57:28;4.57;;;2.80;;
7211;SDS011;3647;48.792;9.802;2023-11-18T19:59:55;2.70;;;2.50;;
7211;SDS011;3647;48.792;9.802;2023-11-18T20:02:23;3.10;;;2.40;;
7211;SDS011;3647;48.792;9.802;2023-11-18T20:04:50;2.73;;;2.53;;
7211;SDS011;3647;48.792;9.802;2023-11-18T20:07:18;3.00;;;2.43;;
7211;SDS011;3647;48.792;9.802;2023-11-18T20:09:45;3.70;;;2.70;;
7211;SDS011;3647;48.792;9.802;2023-11-18T20:12:13;2.87;;;2.67;;
7211;SDS011;3647;48.792;9.802;2023-11-18T20:14:41;3.60;;;2.80;;
7211;SDS011;3647;48.792;9.802;2023-11-18T20:17:08;3.67;;;2.83;;
7211;SDS011;3647;48.792;9.802;2023-11-18T20:19:35;3.23;;;2.93;;
7211;SDS011;3647;48.792;9.802;2023-11-18T20:22:03;3.50;;;3.20;;
7211;SDS011;3647;48.792;9.802;2023-11-18T20:24:32;3.67;;;3.00;;
7211;SDS011;3647;48.792;9.802;2023-11-18T20:27:01;5.60;;;3.10;;
7211;SDS011;3647;48.792;9.802;2023-11-18T20:29:28;2.90;;;2.70;;
7211;SDS011;3647;48.792;9.802;2023-11-18T20:31:55;4.20;;;3.30;;
7211;SDS011;3647;48.792;9.802;2023-11-18T20:34:21;4.37;;;3.33;;
7211;SDS011;3647;48.792;9.802;2023-11-18T20:36:49;3.77;;;3.40;;
7211;SDS011;3647;48.792;9.802;2023-11-18T20:39:16;3.20;;;3.00;;
7211;SDS011;3647;48.792;9.802;2023-11-18T20:41:45;3.27;;;3.07;;
7211;SDS011;3647;48.792;9.802;2023-11-18T20:44:13;4.00;;;3.60;;
7211;SDS011;3647;48.792;9.802;2023-11-18T20:46:41;6.13;;;4.30;;
7211;SDS011;3647;48.792;9.802;2023-11-18T20:49:10;9.10;;;5.60;;
7211;SDS011;3647;48.792;9.802;2023-11-18T20:51:38;7.87;;;5.60;;
7211;SDS011;3647;48.792;9.802;2023-11-18T20:54:05;7.77;;;5.43;;
7211;SDS011;3647;48.792;9.802;2023-11-18T20:56:32;7.40;;;5.50;;
7211;SDS011;3647;48.792;9.802;2023-11-18T20:59:03;7.23;;;4.50;;
7211;SDS011;3647;48.792;9.802;2023-11-18T21:01:31;5.40;;;4.80;;
7211;SDS011;3647;48.792;9.802;2023-11-18T21:04:01;5.67;;;4.10;;
7211;SDS011;3647;48.792;9.802;2023-11-18T21:06:29;4.23;;;3.83;;
7211;SDS011;3647;48.792;9.802;2023-11-18T21:08:57;6.07;;;4.50;;
7211;SDS011;3647;48.792;9.802;2023-11-18T21:11:24;5.93;;;3.73;;
7211;SDS011;3647;48.792;9.802;2023-11-18T21:13:53;6.40;;;4.27;;
7211;SDS011;3647;48.792;9.802;2023-11-18T21:16:22;5.13;;;3.57;;
7211;SDS011;3647;48.792;9.802;2023-11-18T21:21:25;6.20;;;4.07;;
7211;SDS011;3647;48.792;9.802;2023-11-18T21:23:52;5.87;;;3.90;;
7211;SDS011;3647;48.792;9.802;2023-11-18T21:26:19;4.33;;;3.70;;
7211;SDS011;3647;48.792;9.802;2023-11-18T21:28:49;4.30;;;3.90;;
7211;SDS011;3647;48.792;9.802;2023-11-18T21:31:17;5.00;;;4.50;;
7211;SDS011;3647;48.792;9.802;2023-11-18T21:33:45;7.00;;;4.53;;
7211;SDS011;3647;48.792;9.802;2023-11-18T21:36:12;4.53;;;4.13;;
7211;SDS011;3647;48.792;9.802;2023-11-18T21:38:39;4.33;;;3.93;;
7211;SDS011;3647;48.792;9.802;2023-11-18T21:41:09;5.43;;;4.93;;
7211;SDS011;3647;48.792;9.802;2023-11-18T21:43:39;5.83;;;5.20;;
7211;SDS011;3647;48.792;9.802;2023-11-18T21:46:06;6.77;;;5.50;;
7211;SDS011;3647;48.792;9.802;2023-11-18T21:48:34;6.20;;;5.07;;
7211;SDS011;3647;48.792;9.802;2023-11-18T21:51:02;7.30;;;5.33;;
7211;SDS011;3647;48.792;9.802;2023-11-18T21:53:29;9.13;;;5.63;;
7211;SDS011;3647;48.792;9.802;2023-11-18T21:55:58;8.37;;;5.57;;
7211;SDS011;3647;48.792;9.802;2023-11-18T21:58:25;6.27;;;5.30;;
7211;SDS011;3647;48.792;9.802;2023-11-18T22:00:52;9.73;;;6.27;;
7211;SDS011;3647;48.792;9.802;2023-11-18T22:03:19;7.17;;;5.27;;
7211;SDS011;3647;48.792;9.802;2023-11-18T22:05:47;6.93;;;6.00;;
7211;SDS011;3647;48.792;9.802;2023-11-18T22:08:16;8.10;;;5.13;;
7211;SDS011;3647;48.792;9.802;2023-11-18T22:10:46;8.50;;;6.00;;
7211;SDS011;3647;48.792;9.802;2023-11-18T22:13:14;8.03;;;6.13;;
7211;SDS011;3647;48.792;9.802;2023-11-18T22:15:41;7.10;;;6.20;;
7211;SDS011;3647;48.792;9.802;2023-11-18T22:18:08;6.87;;;5.87;;
7211;SDS011;3647;48.792;9.802;2023-11-18T22:20:34;6.23;;;5.63;;
